Time;durP1;ratioP1;P1;durP2;ratioP2;P2;SDS_P1;SDS_P2;PMS_P1;PMS_P2;Temp;Humidity;BMP_temperature;BMP_pressure;BME280_temperature;BME280_humidity;BME280_pressure;Samples;Min_cycle;Max_cycle;Signal;HPM_P1;HPM_P2
2023/06/14 00:01:56;;;;;;;;;;;;;;;19.50;nan;99907.31;5052672;28;19917;-79
2023/06/14 00:04:25;;;;;;;;;;;;;;;19.48;nan;99904.03;5050440;28;19920;-79
2023/06/14 00:06:50;;;;;;;;;;;;;;;19.44;nan;99902.84;5037233;28;19921;-78
2023/06/14 00:09:17;;;;;;;;;;;;;;;19.43;nan;99895.84;5036795;28;19917;-78
2023/06/14 00:11:43;;;;;;;;;;;;;;;19.53;nan;99907.66;5050883;28;19917;-78
2023/06/14 00:14:08;;;;;;;;;;;;;;;19.53;nan;99888.91;5050715;28;19948;-79
2023/06/14 00:16:34;;;;;;;;;;;;;;;19.57;nan;99897.31;5059239;28;19921;-79
2023/06/14 00:19:00;;;;;;;;;;;;;;;19.52;nan;99889.94;5050586;28;19921;-79
2023/06/14 00:21:29;;;;;;;;;;;;;;;19.51;nan;99887.50;5034325;28;20558;-79
2023/06/14 00:23:55;;;;;;;;;;;;;;;19.55;nan;99891.34;5042297;28;20363;-79
2023/06/14 00:26:20;;;;;;;;;;;;;;;19.58;nan;99893.59;5050640;28;19925;-79
2023/06/14 00:28:45;;;;;;;;;;;;;;;19.59;nan;99889.03;5051018;28;19928;-79
2023/06/14 00:31:10;;;;;;;;;;;;;;;19.54;nan;99881.66;5050941;28;19927;-79
2023/06/14 00:33:35;;;;;;;;;;;;;;;19.58;nan;99887.41;5050840;28;19996;-79
2023/06/14 00:36:01;;;;;;;;;;;;;;;19.55;nan;99886.00;5046634;28;19928;-79
2023/06/14 00:38:26;;;;;;;;;;;;;;;19.63;nan;99890.22;5030571;28;19924;-79
2023/06/14 00:40:51;;;;;;;;;;;;;;;19.70;nan;99890.97;5032404;28;19917;-78
2023/06/14 00:43:16;;;;;;;;;;;;;;;19.79;nan;99888.81;5031732;28;19937;-78
2023/06/14 00:45:41;;;;;;;;;;;;;;;19.81;nan;99887.53;5049095;28;19921;-79
2023/06/14 00:48:07;;;;;;;;;;;;;;;19.69;nan;99874.06;5051919;28;19976;-81
2023/06/14 00:50:33;;;;;;;;;;;;;;;19.71;nan;99882.72;5046209;28;19970;-79
2023/06/14 00:53:02;;;;;;;;;;;;;;;19.65;nan;99888.13;5039362;28;20352;-81
2023/06/14 00:55:28;;;;;;;;;;;;;;;19.54;nan;99887.03;5056191;28;19925;-81
2023/06/14 00:57:56;;;;;;;;;;;;;;;19.52;nan;99883.75;5052209;28;20011;-79
2023/06/14 01:00:21;;;;;;;;;;;;;;;;;;5031900;28;19917;-79
2023/06/14 01:02:46;;;;;;;;;;;;;;;;;;5031202;28;19924;-81
2023/06/14 01:05:12;;;;;;;;;;;;;;;19.37;nan;99888.69;5032638;28;19932;-80
2023/06/14 01:07:55;;;;;;;;;;;;;;;19.27;nan;99891.91;5049200;28;19925;-81
2023/06/14 01:10:55;;;;;;;;;;;;;;;19.24;nan;99890.50;5051173;28;19937;-80
2023/06/14 01:13:27;;;;;;;;;;;;;;;19.31;nan;99893.09;4981593;28;20041;-79
2023/06/14 01:15:54;;;;;;;;;;;;;;;19.26;nan;99885.75;5040552;28;19921;-80
2023/06/14 01:18:19;;;;;;;;;;;;;;;19.22;nan;99876.50;5047440;28;19924;-79
2023/06/14 01:20:49;;;;;;;;;;;;;;;19.21;nan;99892.78;5031043;28;19917;-80
2023/06/14 01:23:15;;;;;;;;;;;;;;;19.25;nan;99900.16;5035275;28;19921;-79
2023/06/14 01:25:43;;;;;;;;;;;;;;;;;;5034660;28;20286;-80
2023/06/14 01:28:12;;;;;;;;;;;;;;;19.18;nan;99883.34;5049122;28;19928;-80
2023/06/14 01:30:38;;;;;;;;;;;;;;;19.20;nan;99885.81;5042964;28;19927;-79
2023/06/14 01:33:03;;;;;;;;;;;;;;;;;;5043336;28;19953;-76
2023/06/14 01:35:28;;;;;;;;;;;;;;;19.18;nan;99888.69;5040680;28;19984;-80
2023/06/14 01:37:54;;;;;;;;;;;;;;;19.15;nan;99883.00;5051164;28;19924;-82
2023/06/14 01:40:20;;;;;;;;;;;;;;;19.08;nan;99883.88;5039824;28;19917;-79
2023/06/14 01:42:47;;;;;;;;;;;;;;;19.06;nan;99885.94;5049805;28;19921;-80
2023/06/14 01:45:13;;;;;;;;;;;;;;;19.06;nan;99893.16;5051854;28;20298;-80
2023/06/14 01:47:38;;;;;;;;;;;;;;;19.02;nan;99883.94;5052960;28;19928;-80
2023/06/14 01:50:04;;;;;;;;;;;;;;;19.03;nan;99896.31;5054075;28;19952;-78
2023/06/14 01:52:29;;;;;;;;;;;;;;;19.02;nan;99889.28;5052879;28;19920;-78
2023/06/14 01:54:54;;;;;;;;;;;;;;;19.04;nan;99903.28;5053993;28;20396;-78
2023/06/14 01:57:20;;;;;;;;;;;;;;;19.04;nan;99892.56;5052953;28;20017;-79
2023/06/14 01:59:49;;;;;;;;;;;;;;;19.08;nan;99897.25;5050430;28;19929;-79
2023/06/14 02:02:14;;;;;;;;;;;;;;;18.98;nan;99891.63;5065227;28;19921;-79
2023/06/14 02:04:40;;;;;;;;;;;;;;;18.93;nan;99891.47;5066950;28;19927;-79
2023/06/14 02:07:05;;;;;;;;;;;;;;;18.85;nan;99900.63;5063079;28;20420;-79
2023/06/14 02:09:35;;;;;;;;;;;;;;;18.75;nan;99910.97;5060631;28;19927;-80
2023/06/14 02:12:00;;;;;;;;;;;;;;;18.68;nan;99905.66;5065165;28;19974;-79
2023/06/14 02:14:26;;;;;;;;;;;;;;;18.63;nan;99886.75;5061788;28;20315;-80
2023/06/14 02:16:51;;;;;;;;;;;;;;;18.55;nan;99900.44;5057324;28;20443;-80
2023/06/14 02:19:17;;;;;;;;;;;;;;;18.57;nan;99903.72;5068351;28;19974;-80
2023/06/14 02:21:42;;;;;;;;;;;;;;;18.49;nan;99900.50;5061176;28;20531;-80
2023/06/14 02:24:07;;;;;;;;;;;;;;;18.40;nan;99892.75;5052454;28;19966;-79
2023/06/14 02:26:32;;;;;;;;;;;;;;;18.34;nan;99887.44;5052401;28;19929;-80
2023/06/14 02:28:58;;;;;;;;;;;;;;;18.31;nan;99896.72;5054265;28;19935;-80
2023/06/14 02:31:23;;;;;;;;;;;;;;;18.25;nan;99900.25;5057027;28;19921;-79
2023/06/14 02:33:48;;;;;;;;;;;;;;;18.19;nan;99891.25;5063547;28;19928;-79
2023/06/14 02:36:13;;;;;;;;;;;;;;;18.21;nan;99891.03;5060432;28;19921;-79
2023/06/14 02:38:38;;;;;;;;;;;;;;;18.17;nan;99897.88;5061744;28;20082;-79
2023/06/14 02:41:04;;;;;;;;;;;;;;;18.15;nan;99894.59;5063779;28;20366;-78
2023/06/14 02:43:37;;;;;;;;;;;;;;;18.08;nan;99883.13;5054339;28;19921;-80
2023/06/14 02:46:02;;;;;;;;;;;;;;;18.02;nan;99890.97;5057756;28;19967;-79
2023/06/14 02:48:28;;;;;;;;;;;;;;;17.99;nan;99886.03;5045803;28;19964;-80
2023/06/14 02:50:53;;;;;;;;;;;;;;;17.90;nan;99886.50;5053647;28;19921;-77
2023/06/14 02:53:18;;;;;;;;;;;;;;;17.86;nan;99891.47;5051224;28;19921;-78
2023/06/14 02:55:44;;;;;;;;;;;;;;;17.80;nan;99886.94;5051287;28;19917;-78
2023/06/14 02:58:09;;;;;;;;;;;;;;;17.79;nan;99886.13;5055460;28;20033;-78
2023/06/14 03:00:36;;;;;;;;;;;;;;;17.79;nan;99893.34;5053444;28;19921;-78
2023/06/14 03:03:01;;;;;;;;;;;;;;;17.73;nan;99883.50;5057147;28;19924;-77
2023/06/14 03:05:27;;;;;;;;;;;;;;;17.69;nan;99885.78;5056655;28;19978;-79
2023/06/14 03:07:54;;;;;;;;;;;;;;;17.67;nan;99876.34;5060371;28;19956;-81
2023/06/14 03:10:19;;;;;;;;;;;;;;;;;;5059049;28;19921;-80
2023/06/14 03:12:44;;;;;;;;;;;;;;;17.54;nan;99898.59;5074099;28;19921;-80
2023/06/14 03:15:10;;;;;;;;;;;;;;;17.44;nan;99892.91;5057226;28;19924;-82
2023/06/14 03:17:38;;;;;;;;;;;;;;;17.34;nan;99904.03;5061421;28;19999;-82
2023/06/14 03:20:06;;;;;;;;;;;;;;;17.27;nan;99903.25;5060600;28;19974;-81
2023/06/14 03:22:34;;;;;;;;;;;;;;;17.23;nan;99907.34;5059913;28;19921;-82
2023/06/14 03:24:59;;;;;;;;;;;;;;;17.18;nan;99910.66;5065335;28;19943;-78
2023/06/14 03:27:24;;;;;;;;;;;;;;;17.20;nan;99911.28;5054700;28;19928;-80
2023/06/14 03:29:49;;;;;;;;;;;;;;;17.18;nan;99905.31;5068919;28;19927;-84
2023/06/14 03:32:14;;;;;;;;;;;;;;;17.12;nan;99909.66;5062021;28;19966;-82
2023/06/14 03:34:41;;;;;;;;;;;;;;;17.10;nan;99913.56;5059451;28;19921;-81
2023/06/14 03:37:06;;;;;;;;;;;;;;;17.07;nan;99914.81;5065433;28;20367;-80
2023/06/14 03:39:31;;;;;;;;;;;;;;;17.02;nan;99900.44;5069953;28;19940;-81
2023/06/14 03:41:56;;;;;;;;;;;;;;;16.96;nan;99923.47;5063425;28;20015;-81
2023/06/14 03:44:21;;;;;;;;;;;;;;;16.95;nan;99927.97;5059333;28;21069;-79
2023/06/14 03:46:46;;;;;;;;;;;;;;;16.96;nan;99916.25;5064806;28;19924;-78
2023/06/14 03:49:12;;;;;;;;;;;;;;;16.95;nan;99943.19;5066350;28;19985;-80
2023/06/14 03:51:37;;;;;;;;;;;;;;;17.02;nan;99927.97;5050168;28;19939;-80
2023/06/14 03:54:02;;;;;;;;;;;;;;;17.04;nan;99936.63;5052984;28;19921;-80
2023/06/14 03:56:28;;;;;;;;;;;;;;;17.02;nan;99935.16;5052539;28;19963;-81
2023/06/14 03:58:53;;;;;;;;;;;;;;;16.96;nan;99934.94;5054464;28;20500;-80
2023/06/14 04:01:18;;;;;;;;;;;;;;;16.93;nan;99946.06;5055457;28;19917;-79
2023/06/14 04:03:43;;;;;;;;;;;;;;;16.92;nan;99944.44;5051967;28;19951;-80
2023/06/14 04:06:09;;;;;;;;;;;;;;;16.95;nan;99951.22;5045244;28;19943;-78
2023/06/14 04:08:34;;;;;;;;;;;;;;;16.94;nan;99947.69;5054668;28;19920;-79
2023/06/14 04:11:00;;;;;;;;;;;;;;;16.90;nan;99956.31;5058463;28;20103;-79
2023/06/14 04:13:25;;;;;;;;;;;;;;;16.85;nan;99948.97;5059816;28;19942;-79
2023/06/14 04:15:50;;;;;;;;;;;;;;;16.76;nan;99950.97;5066181;28;19927;-79
2023/06/14 04:18:16;;;;;;;;;;;;;;;16.73;nan;99956.75;5052790;28;20016;-79
2023/06/14 04:20:41;;;;;;;;;;;;;;;16.71;nan;99964.13;5059915;28;19982;-81
2023/06/14 04:23:14;;;;;;;;;;;;;;;16.74;nan;99968.22;5057970;28;19921;-79
2023/06/14 04:25:40;;;;;;;;;;;;;;;16.76;nan;99955.50;5057088;28;19925;-79
2023/06/14 04:28:05;;;;;;;;;;;;;;;16.81;nan;99968.28;5053413;28;19960;-79
2023/06/14 04:30:31;;;;;;;;;;;;;;;16.84;nan;99973.19;5061500;28;20154;-79
2023/06/14 04:32:56;;;;;;;;;;;;;;;16.90;nan;99983.88;5061624;28;19936;-79
2023/06/14 04:35:23;;;;;;;;;;;;;;;17.03;nan;99967.00;5059254;28;20015;-81
2023/06/14 04:37:48;;;;;;;;;;;;;;;17.06;nan;99974.59;5057617;28;19921;-77
2023/06/14 04:40:14;;;;;;;;;;;;;;;17.15;nan;99973.34;5049211;28;20294;-81
2023/06/14 04:42:40;;;;;;;;;;;;;;;17.26;nan;99981.78;5050094;28;20020;-77
2023/06/14 04:45:06;;;;;;;;;;;;;;;17.26;nan;99976.44;5064318;28;19920;-78
2023/06/14 04:47:32;;;;;;;;;;;;;;;17.28;nan;99996.56;5046480;28;20540;-79
2023/06/14 04:49:57;;;;;;;;;;;;;;;17.31;nan;99981.97;5042205;28;20011;-78
2023/06/14 04:52:22;;;;;;;;;;;;;;;17.31;nan;100001.50;5050693;28;19924;-79
2023/06/14 04:54:48;;;;;;;;;;;;;;;17.39;nan;99987.88;5053191;28;20062;-79
2023/06/14 04:57:17;;;;;;;;;;;;;;;17.47;nan;99999.38;5049801;28;19967;-76
2023/06/14 04:59:43;;;;;;;;;;;;;;;;;;5050158;28;20019;-78
2023/06/14 05:02:09;;;;;;;;;;;;;;;17.55;nan;100000.00;5048006;28;20480;-77
2023/06/14 05:04:34;;;;;;;;;;;;;;;17.68;nan;100006.31;5041728;28;20012;-75
2023/06/14 05:07:00;;;;;;;;;;;;;;;17.72;nan;100007.53;5048026;28;20000;-82
2023/06/14 05:09:26;;;;;;;;;;;;;;;17.81;nan;100017.00;5055669;28;20364;-78
2023/06/14 05:11:51;;;;;;;;;;;;;;;17.92;nan;100012.84;5049756;28;19921;-80
2023/06/14 05:14:17;;;;;;;;;;;;;;;17.98;nan;100006.66;5050988;28;19928;-76
2023/06/14 05:16:42;;;;;;;;;;;;;;;18.10;nan;100009.47;5063249;28;19924;-79
2023/06/14 05:19:08;;;;;;;;;;;;;;;18.15;nan;99990.91;5053535;28;19929;-79
2023/06/14 05:21:34;;;;;;;;;;;;;;;18.23;nan;100009.38;5047838;28;19967;-78
2023/06/14 05:23:59;;;;;;;;;;;;;;;18.28;nan;100017.59;5056310;28;19921;-81
2023/06/14 05:26:28;;;;;;;;;;;;;;;;;;5059745;28;19924;-78
2023/06/14 05:28:53;;;;;;;;;;;;;;;;;;5063547;28;20409;-78
2023/06/14 05:31:18;;;;;;;;;;;;;;;18.62;nan;100021.72;5056485;28;19924;-80
2023/06/14 05:33:44;;;;;;;;;;;;;;;18.69;nan;100019.00;5055837;28;19992;-81
2023/06/14 05:36:09;;;;;;;;;;;;;;;18.72;nan;100013.19;5057995;28;19921;-80
2023/06/14 05:38:34;;;;;;;;;;;;;;;18.84;nan;100022.19;5053390;28;20376;-78
2023/06/14 05:40:59;;;;;;;;;;;;;;;18.96;nan;100024.97;5062899;28;20544;-79
2023/06/14 05:43:25;;;;;;;;;;;;;;;19.26;nan;100035.03;5056984;28;20013;-82
2023/06/14 05:45:50;;;;;;;;;;;;;;;19.34;nan;100037.41;5055057;28;20382;-81
2023/06/14 05:48:15;;;;;;;;;;;;;;;19.48;nan;100044.28;5053359;28;19929;-78
2023/06/14 05:50:40;;;;;;;;;;;;;;;19.56;nan;100045.84;5042056;28;19921;-81
2023/06/14 05:53:05;;;;;;;;;;;;;;;19.81;nan;100034.28;5056587;28;19917;-78
2023/06/14 05:55:30;;;;;;;;;;;;;;;20.14;nan;100052.63;5055783;28;19921;-78
2023/06/14 05:57:56;;;;;;;;;;;;;;;20.57;nan;100057.06;5042881;28;19921;-81
2023/06/14 06:00:21;;;;;;;;;;;;;;;20.82;nan;100059.56;5038244;28;19917;-81
2023/06/14 06:02:47;;;;;;;;;;;;;;;20.98;nan;100064.25;5036212;28;19927;-79
2023/06/14 06:05:13;;;;;;;;;;;;;;;21.33;nan;100211.41;5048811;28;20447;-79
2023/06/14 06:07:40;;;;;;;;;;;;;;;21.83;nan;100202.97;5052701;28;19925;-77
2023/06/14 06:10:05;;;;;;;;;;;;;;;21.94;nan;100204.00;5034822;28;19992;-80
2023/06/14 06:12:31;;;;;;;;;;;;;;;22.27;nan;100208.78;5036899;28;20591;-77
2023/06/14 06:14:56;;;;;;;;;;;;;;;22.19;nan;100202.91;5054293;28;19951;-78
2023/06/14 06:17:21;;;;;;;;;;;;;;;22.60;nan;100210.03;5054879;28;19956;-77
2023/06/14 06:19:46;;;;;;;;;;;;;;;22.83;nan;100208.28;5058003;28;19917;-76
2023/06/14 06:22:11;;;;;;;;;;;;;;;22.57;nan;100215.06;5055202;28;19940;-79
2023/06/14 06:24:37;;;;;;;;;;;;;;;22.80;nan;100228.47;5048051;28;19921;-77
2023/06/14 06:27:02;;;;;;;;;;;;;;;22.96;nan;100223.38;5051169;28;19928;-78
2023/06/14 06:29:27;;;;;;;;;;;;;;;23.35;nan;100228.94;5053406;28;20344;-79
2023/06/14 06:31:52;;;;;;;;;;;;;;;23.41;nan;100234.19;5056026;28;19917;-79
2023/06/14 06:34:18;;;;;;;;;;;;;;;23.25;nan;100225.00;5054163;28;19925;-79
2023/06/14 06:36:43;;;;;;;;;;;;;;;22.84;nan;100228.81;5056435;28;19923;-79
2023/06/14 06:39:10;;;;;;;;;;;;;;;22.90;nan;100222.44;5055781;28;19952;-81
2023/06/14 06:41:37;;;;;;;;;;;;;;;23.01;nan;100229.69;5056160;28;19939;-79
2023/06/14 06:44:02;;;;;;;;;;;;;;;23.38;nan;100234.66;5053400;28;19925;-79
2023/06/14 06:46:27;;;;;;;;;;;;;;;23.64;nan;100227.81;5054399;28;19929;-78
2023/06/14 06:48:53;;;;;;;;;;;;;;;23.29;nan;100228.06;5053839;28;19923;-79
2023/06/14 06:51:18;;;;;;;;;;;;;;;23.01;nan;100227.00;5041204;28;19924;-79
2023/06/14 06:53:51;;;;;;;;;;;;;;;23.51;nan;100241.66;5052265;28;19956;-79
2023/06/14 06:56:16;;;;;;;;;;;;;;;23.26;nan;100237.44;5050382;28;19917;-76
2023/06/14 06:58:41;;;;;;;;;;;;;;;23.50;nan;100238.13;5032357;28;20294;-77
2023/06/14 07:01:09;;;;;;;;;;;;;;;23.76;nan;100246.66;5034192;28;19956;-78
2023/06/14 07:03:34;;;;;;;;;;;;;;;23.90;nan;100250.66;5033127;28;20045;-76
2023/06/14 07:05:59;;;;;;;;;;;;;;;24.04;nan;100250.34;5032488;28;20406;-80
2023/06/14 07:08:24;;;;;;;;;;;;;;;23.77;nan;100251.00;5037845;28;20379;-77
2023/06/14 07:10:49;;;;;;;;;;;;;;;24.42;nan;100249.50;5048196;28;20405;-80
2023/06/14 07:13:15;;;;;;;;;;;;;;;24.58;nan;100261.38;5052821;28;20011;-77
2023/06/14 07:15:40;;;;;;;;;;;;;;;24.85;nan;100261.44;5054964;28;19920;-79
2023/06/14 07:18:06;;;;;;;;;;;;;;;25.20;nan;100262.94;5054528;28;20034;-76
2023/06/14 07:20:32;;;;;;;;;;;;;;;25.27;nan;100262.72;5054216;28;19920;-78
2023/06/14 07:22:58;;;;;;;;;;;;;;;25.65;nan;100264.44;5055860;28;19924;-81
2023/06/14 07:25:23;;;;;;;0.00;0.00;;;;;;;25.58;nan;100267.34;5051832;28;19927;-78
2023/06/14 07:27:48;;;;;;;0.00;0.00;;;;;;;25.50;nan;100265.09;5052124;28;20118;-80
2023/06/14 07:30:14;;;;;;;0.00;0.00;;;;;;;25.50;nan;100265.09;5051672;28;20465;-78
2023/06/14 07:32:39;;;;;;;;;;;;;;;25.67;nan;100270.41;5053289;28;20032;-81
2023/06/14 07:35:05;;;;;;;0.00;0.00;;;;;;;25.87;nan;100269.75;5053418;28;19975;-81
2023/06/14 07:37:30;;;;;;;0.00;0.00;;;;;;;26.47;nan;100268.50;5051892;28;20468;-79
2023/06/14 07:39:56;;;;;;;0.00;0.00;;;;;;;26.77;nan;100285.19;5053214;28;20486;-80
2023/06/14 07:42:21;;;;;;;0.00;0.00;;;;;;;27.15;nan;100283.97;5053542;28;20393;-78
2023/06/14 07:44:47;;;;;;;0.00;0.00;;;;;;;26.97;nan;100279.03;5052412;28;20037;-79
2023/06/14 07:47:12;;;;;;;0.00;0.00;;;;;;;27.42;nan;100289.22;5053573;28;20056;-80
2023/06/14 07:49:37;;;;;;;0.00;0.00;;;;;;;26.88;nan;100290.41;5058777;28;20040;-80
2023/06/14 07:52:03;;;;;;;0.00;0.00;;;;;;;27.02;nan;100288.00;5053532;28;20029;-80
2023/06/14 07:54:30;;;;;;;0.00;0.00;;;;;;;27.17;nan;100289.94;5048792;28;20037;-80
2023/06/14 07:56:56;;;;;;;0.00;0.00;;;;;;;27.57;nan;100279.44;5053354;28;20029;-79
2023/06/14 07:59:21;;;;;;;0.00;0.00;;;;;;;27.36;nan;100282.13;5052230;28;20459;-80
2023/06/14 08:01:47;;;;;;;;;;;;;;;28.04;nan;100290.06;5049397;28;20036;-79
2023/06/14 08:04:13;;;;;;;;;;;;;;;28.23;nan;100289.50;5048466;28;19923;-80
2023/06/14 08:06:39;;;;;;;;;;;;;;;28.64;nan;100279.31;5043807;28;19917;-81
2023/06/14 08:09:05;;;;;;;0.00;0.00;;;;;;;27.63;nan;100289.25;5035674;28;19996;-81
2023/06/14 08:11:30;;;;;;;0.00;0.00;;;;;;;27.65;nan;100285.16;5049543;28;20036;-80
2023/06/14 08:13:55;;;;;;;0.00;0.00;;;;;;;28.52;nan;100297.88;5039896;28;20039;-81
2023/06/14 08:16:21;;;;;;;0.00;0.00;;;;;;;28.82;nan;100288.78;5040652;28;20116;-80
2023/06/14 08:18:46;;;;;;;0.00;0.00;;;;;;;29.01;nan;100289.78;5047513;28;20288;-80
2023/06/14 08:21:13;;;;;;;0.00;0.00;;;;;;;29.08;nan;100303.13;5056186;28;20037;-81
2023/06/14 08:23:38;;;;;;;0.00;0.00;;;;;;;29.25;nan;100288.28;5054472;28;20344;-80
2023/06/14 08:26:04;;;;;;;0.00;0.00;;;;;;;29.71;nan;100307.88;5049951;28;20504;-81
2023/06/14 08:28:29;;;;;;;0.00;0.00;;;;;;;29.34;nan;100303.78;5047102;28;20984;-80
2023/06/14 08:30:55;;;;;;;0.00;0.00;;;;;;;29.40;nan;100305.34;5046318;28;20433;-81
2023/06/14 08:33:20;;;;;;;0.00;0.00;;;;;;;29.58;nan;100305.75;5048764;28;20060;-81
2023/06/14 08:35:46;;;;;;;0.00;0.00;;;;;;;29.37;nan;100291.50;5043806;28;20644;-81
2023/06/14 08:38:11;;;;;;;0.00;0.00;;;;;;;29.71;nan;100304.34;5047288;28;20041;-81
2023/06/14 08:40:38;;;;;;;0.00;0.00;;;;;;;30.08;nan;100306.44;5051745;28;20329;-81
2023/06/14 08:43:03;;;;;;;0.00;0.00;;;;;;;30.42;nan;100306.41;5056265;28;20033;-81
2023/06/14 08:45:29;;;;;;;0.00;0.00;;;;;;;30.36;nan;100307.56;5062611;28;20032;-81
2023/06/14 08:47:59;;;;;;;0.00;0.00;;;;;;;30.62;nan;100307.28;5074757;28;20592;-81
2023/06/14 08:50:29;;;;;;;0.00;0.00;;;;;;;30.32;nan;100305.69;5065369;28;20028;-81
2023/06/14 08:53:00;;;;;;;0.00;0.00;;;;;;;30.75;nan;100308.47;5064515;28;20036;-82
2023/06/14 08:55:27;;;;;;;0.00;0.00;;;;;;;30.89;nan;100303.97;5052018;28;20044;-81
2023/06/14 08:57:55;;;;;;;0.00;0.00;;;;;;;30.83;nan;100310.59;5065706;28;20486;-81
2023/06/14 09:00:22;;;;;;;0.00;0.00;;;;;;;31.18;nan;100309.31;5065852;28;20490;-81
2023/06/14 09:02:47;;;;;;;0.00;0.00;;;;;;;30.94;nan;100312.13;5057222;28;20050;-81
2023/06/14 09:05:13;;;;;;;0.00;0.00;;;;;;;31.33;nan;100300.91;5072296;28;20048;-81
2023/06/14 09:07:40;;;;;;;0.00;0.00;;;;;;;31.77;nan;100312.53;5067167;28;20290;-81
2023/06/14 09:10:10;;;;;;;0.00;0.00;;;;;;;31.50;nan;100316.78;5069569;28;20039;-81
2023/06/14 09:12:36;;;;;;;0.00;0.00;;;;;;;32.03;nan;100320.34;5056148;28;20029;-80
2023/06/14 09:15:05;;;;;;;0.00;0.00;;;;;;;31.68;nan;100323.34;5058494;28;20033;-80
2023/06/14 09:17:32;;;;;;;0.00;0.00;;;;;;;32.25;nan;100323.22;5058165;28;20032;-80
2023/06/14 09:19:58;;;;;;;0.00;0.00;;;;;;;32.23;nan;100322.72;5056075;28;20461;-80
2023/06/14 09:22:23;;;;;;;0.00;0.00;;;;;;;32.27;nan;100317.44;5057961;28;20033;-82
2023/06/14 09:24:49;;;;;;;0.00;0.00;;;;;;;32.76;nan;100324.97;5055138;28;20040;-80
2023/06/14 09:27:15;;;;;;;0.00;0.00;;;;;;;33.15;nan;100322.81;5064174;28;20048;-80
2023/06/14 09:29:41;;;;;;;0.00;0.00;;;;;;;32.35;nan;100336.72;5067046;28;20091;-78
2023/06/14 09:32:06;;;;;;;0.00;0.00;;;;;;;31.60;nan;100328.69;5055162;28;20094;-78
2023/06/14 09:34:33;;;;;;;0.00;0.00;;;;;;;32.64;nan;100334.84;5064248;28;20271;-78
2023/06/14 09:36:58;;;;;;;0.00;0.00;;;;;;;33.19;nan;100327.38;5062924;28;20028;-82
2023/06/14 09:39:24;;;;;;;0.00;0.00;;;;;;;33.50;nan;100317.63;5064219;28;20036;-81
2023/06/14 09:41:50;;;;;;;0.00;0.00;;;;;;;34.02;nan;100321.56;5058653;28;20033;-81
2023/06/14 09:44:17;;;;;;;0.00;0.00;;;;;;;34.38;nan;100331.63;5051984;28;20029;-81
2023/06/14 09:46:44;;;;;;;0.00;0.00;;;;;;;33.42;nan;100330.16;5060055;28;20413;-82
2023/06/14 09:49:09;;;;;;;0.00;0.00;;;;;;;33.87;nan;100321.94;5066797;28;20417;-82
2023/06/14 09:51:42;;;;;;;0.00;0.00;;;;;;;33.71;nan;100320.72;5056461;28;20420;-80
2023/06/14 09:54:11;;;;;;;0.00;0.00;;;;;;;33.66;nan;100326.31;5057173;28;20943;-83
2023/06/14 09:56:40;;;;;;;0.00;0.00;;;;;;;33.16;nan;100330.75;5055259;28;20402;-83
2023/06/14 09:59:08;;;;;;;0.00;0.00;;;;;;;33.63;nan;100327.75;5063041;28;20407;-84
2023/06/14 10:01:37;;;;;;;0.00;0.00;;;;;;;34.18;nan;100322.00;5063810;28;20759;-80
2023/06/14 10:04:04;;;;;;;0.00;0.00;;;;;;;34.75;nan;100321.25;5068441;28;20405;-82
2023/06/14 10:06:30;;;;;;;0.00;0.00;;;;;;;34.83;nan;100319.69;5061603;28;20428;-79
2023/06/14 10:09:00;;;;;;;0.00;0.00;;;;;;;35.19;nan;100324.13;5057488;28;20410;-80
2023/06/14 10:11:26;;;;;;;0.00;0.00;;;;;;;35.68;nan;100327.50;5061674;28;20481;-80
2023/06/14 10:13:51;;;;;;;0.00;0.00;;;;;;;35.79;nan;100320.53;5052022;28;20938;-82
2023/06/14 10:16:23;;;;;;;0.00;0.00;;;;;;;36.21;nan;100325.47;5063609;28;20402;-83
2023/06/14 10:18:57;;;;;;;0.00;0.00;;;;;;;35.72;nan;100325.72;5059585;28;20036;-80
2023/06/14 10:21:33;;;;;;;0.00;0.00;;;;;;;34.67;nan;100313.81;5058049;28;20838;-81
2023/06/14 10:24:03;;;;;;;0.00;0.00;;;;;;;35.25;nan;100326.38;5059802;28;20082;-80
2023/06/14 10:26:28;;;;;;;0.00;0.00;;;;;;;36.17;nan;100316.28;5054914;28;20037;-81
2023/06/14 10:29:08;;;;;;;0.00;0.00;;;;;;;35.16;nan;100327.50;5050171;28;20827;-80
2023/06/14 10:31:45;;;;;;;0.00;0.00;;;;;;;34.68;nan;100323.66;5050018;28;20405;-82
2023/06/14 10:34:12;;;;;;;0.00;0.00;;;;;;;35.14;nan;100325.09;5057842;28;20467;-79
2023/06/14 10:36:41;;;;;;;0.00;0.00;;;;;;;35.20;nan;100328.47;5050991;28;20390;-79
2023/06/14 10:39:10;;;;;;;0.00;0.00;;;;;;;36.42;nan;100317.28;5041565;28;20412;-80
2023/06/14 10:41:38;;;;;;;0.00;0.00;;;;;;;36.56;nan;100324.16;5041406;28;20395;-82
2023/06/14 10:44:12;;;;;;;0.00;0.00;;;;;;;34.73;nan;100320.78;5052808;28;20444;-80
2023/06/14 10:46:38;;;;;;;0.00;0.00;;;;;;;33.46;nan;100325.66;5058607;28;20431;-80
2023/06/14 10:49:03;;;;;;;0.00;0.00;;;;;;;33.49;nan;100319.56;5061003;28;20440;-82
2023/06/14 10:51:30;;;;;;;0.00;0.00;;;;;;;34.23;nan;100318.31;5049291;28;20762;-82
2023/06/14 10:53:56;;;;;;;0.00;0.00;;;;;;;35.49;nan;100308.56;5061194;28;20397;-82
2023/06/14 10:56:32;;;;;;;0.00;0.00;;;;;;;34.43;nan;100316.94;5043130;28;20857;-80
2023/06/14 10:58:58;;;;;;;0.00;0.00;;;;;;;35.89;nan;100316.63;5055815;28;20408;-80
2023/06/14 11:01:37;;;;;;;0.00;0.00;;;;;;;35.92;nan;100315.97;5063116;28;20410;-81
2023/06/14 11:04:10;;;;;;;0.00;0.00;;;;;;;37.64;nan;100316.50;5045380;28;20400;-81
2023/06/14 11:07:08;;;;;;;0.00;0.00;;;;;;;38.71;nan;100303.56;5047246;28;20445;-81
2023/06/14 11:10:04;;;;;;;0.00;0.00;;;;;;;38.03;nan;100318.69;5047640;28;20816;-82
2023/06/14 11:12:32;;;;;;;0.00;0.00;;;;;;;38.73;nan;100294.91;5041832;28;20393;-82
2023/06/14 11:14:57;;;;;;;0.00;0.00;;;;;;;40.03;nan;100297.44;5045628;28;20443;-83
2023/06/14 11:17:23;;;;;;;0.00;0.00;;;;;;;;;;5047062;28;20397;-83
2023/06/14 11:19:49;;;;;;;0.00;0.00;;;;;;;;;;5050876;28;20414;-85
2023/06/14 11:22:15;;;;;;;0.00;0.00;;;;;;;;;;5046738;28;20407;-82
2023/06/14 11:24:40;;;;;;;0.00;0.00;;;;;;;;;;5068948;28;20945;-86
2023/06/14 11:27:06;;;;;;;0.00;0.00;;;;;;;;;;5068480;28;20489;-85
2023/06/14 11:29:31;;;;;;;0.00;0.00;;;;;;;;;;5068378;28;20396;-83
2023/06/14 11:31:56;;;;;;;0.00;0.00;;;;;;;;;;5056715;28;20409;-82
2023/06/14 11:34:22;;;;;;;0.00;0.00;;;;;;;;;;5059885;28;20408;-84
2023/06/14 11:36:47;;;;;;;0.00;0.00;;;;;;;;;;5053908;28;20417;-83
2023/06/14 11:39:13;;;;;;;0.00;0.00;;;;;;;;;;5047885;28;20418;-83
2023/06/14 11:41:39;;;;;;;0.00;0.00;;;;;;;;;;5061716;28;20965;-84
2023/06/14 11:44:05;;;;;;;0.00;0.00;;;;;;;32.14;nan;100311.66;5042885;28;20825;-84
2023/06/14 11:46:30;;;;;;;0.00;0.00;;;;;;;;;;5056718;28;21102;-82
2023/06/14 11:48:56;;;;;;;0.00;0.00;;;;;;;;;;5069195;28;20480;-84
2023/06/14 11:51:21;;;;;;;0.00;0.00;;;;;;;;;;5054782;28;20798;-83
2023/06/14 11:53:46;;;;;;;0.00;0.00;;;;;;;;;;5050583;28;20405;-82
2023/06/14 11:56:12;;;;;;;0.00;0.00;;;;;;;;;;5050403;28;20400;-83
2023/06/14 11:58:37;;;;;;;0.00;0.00;;;;;;;;;;5059409;28;20477;-83
2023/06/14 12:01:05;;;;;;;0.00;0.00;;;;;;;;;;5050219;28;20485;-82
2023/06/14 12:03:31;;;;;;;0.00;0.00;;;;;;;;;;5065169;28;21009;-82
2023/06/14 12:06:07;;;;;;;0.00;0.00;;;;;;;;;;5066809;28;20404;-81
2023/06/14 12:08:39;;;;;;;0.00;0.00;;;;;;;;;;5068766;28;20451;-83
2023/06/14 12:11:06;;;;;;;0.00;0.00;;;;;;;;;;5058505;28;20400;-81
2023/06/14 12:13:31;;;;;;;0.00;0.00;;;;;;;;;;5062673;28;20465;-83
2023/06/14 12:15:57;;;;;;;0.00;0.00;;;;;;;;;;5058343;28;20433;-83
2023/06/14 12:18:32;;;;;;;0.00;0.00;;;;;;;31.99;nan;100292.78;5071900;28;20409;-86
2023/06/14 12:21:02;;;;;;;0.00;0.00;;;;;;;31.35;nan;100297.88;5052250;28;20898;-83
2023/06/14 12:23:51;;;;;;;0.00;0.00;;;;;;;30.60;nan;100298.56;5057431;28;20417;-82
2023/06/14 12:26:17;;;;;;;0.00;0.00;;;;;;;29.98;nan;100301.91;5058180;28;20423;-83
2023/06/14 12:28:45;;;;;;;0.00;0.00;;;;;;;30.33;nan;100296.44;5059280;28;20468;-80
2023/06/14 12:31:15;;;;;;;0.00;0.00;;;;;;;30.44;nan;100297.97;5051782;28;20455;-83
2023/06/14 12:33:41;;;;;;;0.00;0.00;;;;;;;31.13;nan;100297.63;5050350;28;20413;-83
2023/06/14 12:36:10;;;;;;;0.00;0.00;;;;;;;30.87;nan;100287.91;5060848;28;20423;-84
2023/06/14 12:38:36;;;;;;;0.00;0.00;;;;;;;31.16;nan;100295.16;5059612;28;20403;-82
2023/06/14 12:41:02;;;;;;;0.00;0.00;;;;;;;31.38;nan;100293.75;5064167;28;20409;-81
2023/06/14 12:43:27;;;;;;;0.00;0.00;;;;;;;31.37;nan;100298.41;5064811;28;20448;-81